createdAt,value
2022-10-23T00:01:29.870Z,7.70
2022-10-23T00:04:01.561Z,7.70
2022-10-23T00:06:30.038Z,7.70
2022-10-23T00:08:56.820Z,7.60
2022-10-23T00:11:27.149Z,7.60
2022-10-23T00:13:55.985Z,7.60
2022-10-23T00:16:22.776Z,7.60
2022-10-23T00:18:49.591Z,7.50
2022-10-23T00:21:17.510Z,7.40
2022-10-23T00:23:45.114Z,7.40
2022-10-23T00:26:15.738Z,7.40
2022-10-23T00:28:43.990Z,7.30
2022-10-23T00:31:11.478Z,7.30
2022-10-23T00:33:40.943Z,7.40
2022-10-23T00:36:09.727Z,7.30
2022-10-23T00:38:36.926Z,7.40
2022-10-23T00:41:04.633Z,7.40
2022-10-23T00:43:32.715Z,7.30
2022-10-23T00:45:59.556Z,7.20
2022-10-23T00:48:28.626Z,7.10
2022-10-23T00:50:56.498Z,7.00
2022-10-23T00:53:24.752Z,7.00
2022-10-23T00:55:53.854Z,7.10
2022-10-23T00:58:21.452Z,7.10
2022-10-23T01:00:51.562Z,7.00
2022-10-23T01:03:21.376Z,7.00
2022-10-23T01:06:00.450Z,7.00
2022-10-23T01:08:48.817Z,7.10
2022-10-23T01:11:18.980Z,7.00
2022-10-23T01:14:23.542Z,7.10
2022-10-23T01:17:25.438Z,7.10
2022-10-23T01:20:19.272Z,7.10
2022-10-23T01:23:24.967Z,7.00
2022-10-23T01:26:16.669Z,7.00
2022-10-23T01:28:58.811Z,7.10
2022-10-23T01:31:33.631Z,7.00
2022-10-23T01:34:07.139Z,6.90
2022-10-23T01:36:36.142Z,6.80
2022-10-23T01:39:08.728Z,6.80
2022-10-23T01:41:35.395Z,6.80
2022-10-23T01:44:26.324Z,6.80
2022-10-23T01:46:54.507Z,6.80
2022-10-23T01:49:22.751Z,6.90
2022-10-23T01:52:00.816Z,6.80
2022-10-23T01:54:31.562Z,6.80
2022-10-23T01:56:59.201Z,6.90
2022-10-23T01:59:39.631Z,6.90
2022-10-23T02:02:11.330Z,6.90
2022-10-23T02:04:58.133Z,6.80
2022-10-23T02:07:24.934Z,6.60
2022-10-23T02:09:51.863Z,6.50
2022-10-23T02:12:37.815Z,6.60
2022-10-23T02:15:21.481Z,6.60
2022-10-23T02:18:20.727Z,6.50
2022-10-23T02:20:55.872Z,6.60
2022-10-23T02:23:40.596Z,6.60
2022-10-23T02:26:16.840Z,6.70
2022-10-23T02:28:52.275Z,6.70
2022-10-23T02:31:22.294Z,6.60
2022-10-23T02:33:49.357Z,6.50
2022-10-23T02:36:18.051Z,6.50
2022-10-23T02:38:46.239Z,6.40
2022-10-23T02:41:44.341Z,6.40
2022-10-23T02:44:37.692Z,6.40
2022-10-23T02:47:28.148Z,6.50
2022-10-23T02:50:06.042Z,6.50
2022-10-23T02:52:43.007Z,6.40
2022-10-23T02:55:21.266Z,6.40
2022-10-23T02:58:09.293Z,6.40
2022-10-23T03:00:45.317Z,6.40
2022-10-23T03:03:27.102Z,6.40
2022-10-23T03:05:54.543Z,6.50
2022-10-23T03:08:21.365Z,6.40
2022-10-23T03:13:14.735Z,6.40
2022-10-23T03:15:43.660Z,6.40
2022-10-23T03:18:13.477Z,6.40
2022-10-23T03:20:44.716Z,6.40
2022-10-23T03:23:13.872Z,6.40
2022-10-23T03:25:40.617Z,6.40
2022-10-23T03:28:07.352Z,6.40
2022-10-23T03:30:35.671Z,6.40
2022-10-23T03:33:02.515Z,6.50
2022-10-23T03:35:29.267Z,6.30
2022-10-23T03:37:55.946Z,6.30
2022-10-23T03:40:25.171Z,6.40
2022-10-23T03:42:51.835Z,6.50
2022-10-23T03:45:19.661Z,6.50
2022-10-23T03:47:48.592Z,6.60
2022-10-23T03:50:15.503Z,6.40
2022-10-23T03:52:42.728Z,6.40
2022-10-23T03:55:12.487Z,6.40
2022-10-23T03:57:39.266Z,6.30
2022-10-23T04:00:07.261Z,6.40
2022-10-23T04:02:43.570Z,6.30
2022-10-23T04:05:11.000Z,6.30
2022-10-23T04:07:39.920Z,6.40
2022-10-23T04:10:07.272Z,6.40
2022-10-23T04:12:34.775Z,6.40
2022-10-23T04:15:01.479Z,6.30
2022-10-23T04:19:55.264Z,6.30
2022-10-23T04:22:24.725Z,6.30
2022-10-23T04:24:54.508Z,6.40
2022-10-23T04:27:21.276Z,6.40
2022-10-23T04:29:49.185Z,6.50
2022-10-23T04:32:16.046Z,6.50
2022-10-23T04:34:44.290Z,6.40
2022-10-23T04:37:11.050Z,6.40
2022-10-23T04:39:38.327Z,6.40
2022-10-23T04:42:05.149Z,6.30
2022-10-23T04:44:31.873Z,6.30
2022-10-23T04:46:58.653Z,6.20
2022-10-23T04:49:25.457Z,6.20
2022-10-23T04:52:17.624Z,6.20
2022-10-23T04:55:04.932Z,6.20
2022-10-23T04:57:40.984Z,6.30
2022-10-23T05:00:12.213Z,6.20
2022-10-23T05:02:51.740Z,6.20
2022-10-23T05:05:19.944Z,6.20
2022-10-23T05:08:05.380Z,6.30
2022-10-23T05:10:42.615Z,6.30
2022-10-23T05:13:12.147Z,6.20
2022-10-23T05:15:40.350Z,6.10
2022-10-23T05:18:31.152Z,6.10
2022-10-23T05:21:06.463Z,6.10
2022-10-23T05:23:36.337Z,6.10
2022-10-23T05:26:04.429Z,6.10
2022-10-23T05:28:32.144Z,6.10
2022-10-23T05:31:00.855Z,6.20
2022-10-23T05:33:30.135Z,6.20
2022-10-23T05:35:57.713Z,6.10
2022-10-23T05:38:26.659Z,6.00
2022-10-23T05:40:54.945Z,6.00
2022-10-23T05:43:23.071Z,6.00
2022-10-23T05:45:54.333Z,6.00
2022-10-23T05:48:44.227Z,5.90
2022-10-23T05:51:26.712Z,5.90
2022-10-23T05:54:11.975Z,5.90
2022-10-23T05:56:48.313Z,6.00
2022-10-23T05:59:23.497Z,6.00
2022-10-23T06:02:10.673Z,6.00
2022-10-23T06:05:00.476Z,6.10
2022-10-23T06:07:33.566Z,6.20
2022-10-23T06:10:05.860Z,6.20
2022-10-23T06:12:35.232Z,6.10
2022-10-23T06:15:02.629Z,6.10
2022-10-23T06:17:49.194Z,6.10
2022-10-23T06:20:15.974Z,6.10
2022-10-23T06:22:44.384Z,6.20
2022-10-23T06:25:32.107Z,6.20
2022-10-23T06:27:59.148Z,6.20
2022-10-23T06:30:26.986Z,6.30
2022-10-23T06:32:54.061Z,6.30
2022-10-23T06:35:20.745Z,6.40
2022-10-23T06:37:47.528Z,6.40
2022-10-23T06:40:18.572Z,6.40
2022-10-23T06:42:58.927Z,6.50
2022-10-23T06:45:42.716Z,6.60
2022-10-23T06:48:12.395Z,6.70
2022-10-23T06:50:59.915Z,6.80
2022-10-23T06:53:36.187Z,6.70
2022-10-23T06:56:14.079Z,6.70
2022-10-23T06:58:41.268Z,6.70
2022-10-23T07:01:16.349Z,6.80
2022-10-23T07:03:44.909Z,6.90
2022-10-23T07:06:12.108Z,7.00
2022-10-23T07:08:39.235Z,7.20
2022-10-23T07:11:23.415Z,7.30
2022-10-23T07:13:50.863Z,7.40
2022-10-23T07:16:23.299Z,7.40
2022-10-23T07:18:58.731Z,7.50
2022-10-23T07:21:31.146Z,7.60
2022-10-23T07:24:15.101Z,7.70
2022-10-23T07:26:41.899Z,7.80
2022-10-23T07:29:08.943Z,7.90
2022-10-23T07:31:35.831Z,8.00
2022-10-23T07:34:21.166Z,8.10
2022-10-23T07:37:00.484Z,8.20
2022-10-23T07:39:27.260Z,8.40
2022-10-23T07:41:53.959Z,8.60
2022-10-23T07:44:22.107Z,8.70
2022-10-23T07:46:51.122Z,8.80
2022-10-23T07:49:17.780Z,9.00
2022-10-23T07:51:48.956Z,8.90
2022-10-23T07:54:18.159Z,9.00
2022-10-23T07:57:00.400Z,9.10
2022-10-23T07:59:38.096Z,9.30
2022-10-23T08:02:13.204Z,9.40
2022-10-23T08:04:41.577Z,9.50
2022-10-23T08:07:21.441Z,9.60
2022-10-23T08:09:49.613Z,9.80
2022-10-23T08:12:16.322Z,9.90
2022-10-23T08:14:43.382Z,10.10
2022-10-23T08:17:11.317Z,10.30
2022-10-23T08:19:56.327Z,10.50
2022-10-23T08:22:26.334Z,10.70
2022-10-23T08:24:53.039Z,10.90
2022-10-23T08:27:19.791Z,11.00
2022-10-23T08:29:47.613Z,11.20
2022-10-23T08:32:14.334Z,11.40
2022-10-23T08:34:55.859Z,11.50
2022-10-23T08:37:24.199Z,11.70
2022-10-23T08:39:53.227Z,11.70
2022-10-23T08:42:27.488Z,11.80
2022-10-23T08:45:07.022Z,11.90
2022-10-23T08:47:50.768Z,11.90
2022-10-23T08:50:23.097Z,11.90
2022-10-23T08:53:09.305Z,12.00
2022-10-23T08:55:43.406Z,12.10
2022-10-23T08:58:23.951Z,12.20
2022-10-23T09:00:51.812Z,12.40
2022-10-23T09:03:18.818Z,12.60
2022-10-23T09:06:27.249Z,12.70
2022-10-23T09:09:18.745Z,12.80
2022-10-23T09:12:15.308Z,12.90
2022-10-23T09:14:49.971Z,13.10
2022-10-23T09:17:30.200Z,13.20
2022-10-23T09:20:18.726Z,13.40
2022-10-23T09:22:46.764Z,13.40
2022-10-23T09:25:20.047Z,13.50
2022-10-23T09:27:56.098Z,13.50
2022-10-23T09:30:34.629Z,13.60
2022-10-23T09:33:14.072Z,13.70
2022-10-23T09:36:13.676Z,13.90
2022-10-23T09:38:50.241Z,14.10
2022-10-23T09:41:26.258Z,14.40
2022-10-23T09:44:07.841Z,14.50
2022-10-23T09:46:43.607Z,14.70
2022-10-23T09:49:25.421Z,14.90
2022-10-23T09:52:10.164Z,15.10
2022-10-23T09:54:44.553Z,15.20
2022-10-23T09:57:29.022Z,15.40
2022-10-23T09:59:59.199Z,15.50
2022-10-23T10:02:36.758Z,15.50
2022-10-23T10:05:25.791Z,15.60
2022-10-23T10:08:21.417Z,15.70
2022-10-23T10:10:52.181Z,15.70
2022-10-23T10:13:33.817Z,15.70
2022-10-23T10:16:09.622Z,15.70
2022-10-23T10:18:43.384Z,15.80
2022-10-23T10:21:20.892Z,15.80
2022-10-23T10:23:56.007Z,16.00
2022-10-23T10:26:55.352Z,16.10
2022-10-23T10:30:01.975Z,16.30
2022-10-23T10:32:31.998Z,16.60
2022-10-23T10:35:13.744Z,16.70
2022-10-23T10:38:13.329Z,16.70
2022-10-23T10:41:00.629Z,16.80
2022-10-23T10:43:59.428Z,16.90
2022-10-23T10:46:40.952Z,17.00
2022-10-23T10:49:12.976Z,17.10
2022-10-23T10:52:20.486Z,17.30
2022-10-23T10:55:01.644Z,17.40
2022-10-23T10:57:40.018Z,17.60
2022-10-23T11:00:28.525Z,17.70
2022-10-23T11:03:04.485Z,17.80
2022-10-23T11:05:34.833Z,17.90
2022-10-23T11:08:14.938Z,18.00
2022-10-23T11:10:46.217Z,18.10
2022-10-23T11:13:40.297Z,18.20
2022-10-23T11:16:18.531Z,18.30
2022-10-23T11:18:52.955Z,18.40
2022-10-23T11:21:41.694Z,18.50
2022-10-23T11:24:24.925Z,18.70
2022-10-23T11:27:18.542Z,18.80
2022-10-23T11:30:18.521Z,18.80
2022-10-23T11:33:09.365Z,18.90
2022-10-23T11:35:47.948Z,19.00
2022-10-23T11:38:30.029Z,19.00
2022-10-23T11:41:06.907Z,19.00
2022-10-23T11:43:47.208Z,19.00
2022-10-23T11:46:27.097Z,19.00
2022-10-23T11:48:55.697Z,19.00
2022-10-23T11:51:34.342Z,18.90
2022-10-23T11:54:10.358Z,18.80
2022-10-23T11:57:14.301Z,18.80
2022-10-23T11:59:50.066Z,18.80
2022-10-23T12:02:38.067Z,18.70
2022-10-23T12:05:45.639Z,18.80
2022-10-23T12:08:25.208Z,18.80
2022-10-23T12:10:52.891Z,18.90
2022-10-23T12:13:37.597Z,18.90
2022-10-23T12:16:07.407Z,19.10
2022-10-23T12:18:44.869Z,19.20
2022-10-23T12:21:21.429Z,19.30
2022-10-23T12:24:00.388Z,19.40
2022-10-23T12:26:45.690Z,19.50
2022-10-23T12:29:41.009Z,19.80
2022-10-23T12:32:34.998Z,20.00
2022-10-23T12:35:10.876Z,20.30
2022-10-23T12:38:01.977Z,20.40
2022-10-23T12:40:30.225Z,20.60
2022-10-23T12:42:59.420Z,20.60
2022-10-23T12:45:27.285Z,20.70
2022-10-23T12:47:54.033Z,20.70
2022-10-23T12:50:23.577Z,20.80
2022-10-23T12:53:06.637Z,20.70
2022-10-23T12:55:57.118Z,20.70
2022-10-23T12:58:31.742Z,20.50
2022-10-23T13:01:04.245Z,20.30
2022-10-23T13:03:33.726Z,20.10
2022-10-23T13:06:02.999Z,19.80
2022-10-23T13:08:38.717Z,19.70
2022-10-23T13:11:26.570Z,19.60
2022-10-23T13:13:55.541Z,19.50
2022-10-23T13:23:35.933Z,20.10
2022-10-23T13:26:23.401Z,19.90
2022-10-23T13:28:50.849Z,20.10
2022-10-23T13:31:17.471Z,20.40
2022-10-23T13:34:03.017Z,20.50
2022-10-23T13:36:34.554Z,20.60
2022-10-23T13:39:11.767Z,20.60
2022-10-23T13:41:41.435Z,20.70
2022-10-23T13:44:14.873Z,20.70
2022-10-23T13:46:42.165Z,20.80
2022-10-23T13:49:09.164Z,20.80
2022-10-23T13:51:42.787Z,20.70
2022-10-23T13:54:16.052Z,20.70
2022-10-23T13:56:42.906Z,20.70
2022-10-23T13:59:12.947Z,20.50
2022-10-23T14:01:40.082Z,20.20
2022-10-23T14:04:07.809Z,19.90
2022-10-23T14:06:37.379Z,19.60
2022-10-23T14:09:10.428Z,19.40
2022-10-23T14:11:37.165Z,19.20
2022-10-23T14:14:03.876Z,19.10
2022-10-23T14:16:30.849Z,19.00
2022-10-23T14:18:57.691Z,18.90
2022-10-23T14:21:24.847Z,18.90
2022-10-23T14:23:53.058Z,18.80
2022-10-23T14:26:22.996Z,18.70
2022-10-23T14:28:53.246Z,18.70
2022-10-23T14:31:20.377Z,18.60
2022-10-23T14:33:52.763Z,18.60
2022-10-23T14:38:58.758Z,18.60
2022-10-23T14:41:26.330Z,18.70
2022-10-23T14:43:54.289Z,18.80
2022-10-23T14:46:23.973Z,18.80
2022-10-23T14:48:55.788Z,18.80
2022-10-23T14:51:27.821Z,18.70
2022-10-23T14:53:58.872Z,18.60
2022-10-23T14:56:26.369Z,18.60
2022-10-23T14:58:53.518Z,18.50
2022-10-23T15:01:20.410Z,18.40
2022-10-23T15:03:48.481Z,18.40
2022-10-23T15:06:18.237Z,18.40
2022-10-23T15:08:45.296Z,18.30
2022-10-23T15:11:12.796Z,18.20
2022-10-23T15:13:39.604Z,18.20
2022-10-23T15:16:08.945Z,18.10
2022-10-23T15:21:07.247Z,18.00
2022-10-23T15:23:36.752Z,18.00
2022-10-23T15:26:06.392Z,17.90
2022-10-23T15:28:34.773Z,17.80
2022-10-23T15:31:01.748Z,17.70
2022-10-23T15:33:28.620Z,17.60
2022-10-23T15:35:56.482Z,17.60
2022-10-23T15:38:24.427Z,17.50
2022-10-23T15:40:53.617Z,17.40
2022-10-23T15:43:20.393Z,17.30
2022-10-23T15:45:47.156Z,17.20
2022-10-23T15:48:13.931Z,17.20
2022-10-23T15:50:40.656Z,17.10
2022-10-23T15:53:07.329Z,17.00
2022-10-23T15:55:34.108Z,16.80
2022-10-23T15:58:04.092Z,16.70
2022-10-23T16:00:30.921Z,16.50
2022-10-23T16:02:58.126Z,16.50
2022-10-23T16:05:24.960Z,16.40
2022-10-23T16:07:51.639Z,16.30
2022-10-23T16:10:18.746Z,16.20
2022-10-23T16:12:45.853Z,16.10
2022-10-23T16:15:12.828Z,16.10
2022-10-23T16:17:39.718Z,16.00
2022-10-23T16:20:06.943Z,15.90
2022-10-23T16:22:33.676Z,15.80
2022-10-23T16:25:00.456Z,15.70
2022-10-23T16:27:27.265Z,15.70
2022-10-23T16:29:54.149Z,15.60
2022-10-23T16:32:20.870Z,15.50
2022-10-23T16:34:47.592Z,15.50
2022-10-23T16:37:14.377Z,15.30
2022-10-23T16:40:00.107Z,15.30
2022-10-23T16:42:49.502Z,15.10
2022-10-23T16:45:37.798Z,15.10
2022-10-23T16:48:04.933Z,15.10
2022-10-23T16:50:31.675Z,15.10
2022-10-23T16:52:58.429Z,15.10
2022-10-23T16:55:25.144Z,15.10
2022-10-23T16:57:51.910Z,15.00
2022-10-23T17:00:21.898Z,15.00
2022-10-23T17:02:48.704Z,15.00
2022-10-23T17:05:15.889Z,15.00
2022-10-23T17:07:42.903Z,14.90
2022-10-23T17:10:10.089Z,14.90
2022-10-23T17:12:36.882Z,15.00
2022-10-23T17:15:03.930Z,15.00
2022-10-23T17:17:30.668Z,15.00
2022-10-23T17:19:59.568Z,14.90
2022-10-23T17:22:26.274Z,14.90
2022-10-23T17:24:54.030Z,14.90
2022-10-23T17:27:21.010Z,14.80
2022-10-23T17:29:47.962Z,14.80
2022-10-23T17:32:14.767Z,14.80
2022-10-23T17:34:41.596Z,14.80
2022-10-23T17:37:08.927Z,14.70
2022-10-23T17:39:35.965Z,14.70
2022-10-23T17:42:02.675Z,14.70
2022-10-23T17:44:29.373Z,14.60
2022-10-23T17:46:56.204Z,14.50
2022-10-23T17:49:24.368Z,14.50
2022-10-23T17:51:56.908Z,14.50
2022-10-23T17:54:24.403Z,14.40
2022-10-23T17:56:51.278Z,14.40
2022-10-23T17:59:19.521Z,14.30
2022-10-23T18:01:48.059Z,14.30
2022-10-23T18:04:17.333Z,14.30
2022-10-23T18:06:47.597Z,14.20
2022-10-23T18:09:14.542Z,14.10
2022-10-23T18:11:45.347Z,14.10
2022-10-23T18:14:13.991Z,14.10
2022-10-23T18:16:40.845Z,14.10
2022-10-23T18:19:07.841Z,14.10
2022-10-23T18:21:35.769Z,14.10
2022-10-23T18:24:03.014Z,14.10
2022-10-23T18:26:31.315Z,14.10
2022-10-23T18:28:59.422Z,14.20
2022-10-23T18:31:30.108Z,14.10
2022-10-23T18:33:58.701Z,14.10
2022-10-23T18:36:28.871Z,14.10
2022-10-23T18:41:28.045Z,14.20
2022-10-23T18:43:55.208Z,14.20
2022-10-23T18:46:22.278Z,14.10
2022-10-23T18:48:50.767Z,14.10
2022-10-23T18:51:20.739Z,14.00
2022-10-23T18:53:48.364Z,14.00
2022-10-23T18:56:21.832Z,14.00
2022-10-23T18:58:53.773Z,14.00
2022-10-23T19:01:21.134Z,14.10
2022-10-23T19:03:48.075Z,14.10
2022-10-23T19:06:16.116Z,14.10
2022-10-23T19:08:44.441Z,14.10
2022-10-23T19:11:13.349Z,14.10
2022-10-23T19:13:40.694Z,14.10
2022-10-23T19:16:14.610Z,14.10
2022-10-23T19:18:44.900Z,14.00
2022-10-23T19:21:12.087Z,14.00
2022-10-23T19:23:41.699Z,14.00
2022-10-23T19:26:11.933Z,14.10
2022-10-23T19:28:42.511Z,14.10
2022-10-23T19:31:10.424Z,14.10
2022-10-23T19:33:38.851Z,14.00
2022-10-23T19:36:08.858Z,14.00
2022-10-23T19:38:40.249Z,14.00
2022-10-23T19:41:07.539Z,14.00
2022-10-23T19:43:34.346Z,13.90
2022-10-23T19:46:04.996Z,14.00
2022-10-23T19:48:34.885Z,14.00
2022-10-23T19:51:01.620Z,13.90
2022-10-23T19:53:28.392Z,13.90
2022-10-23T19:56:06.233Z,13.90
2022-10-23T19:58:33.261Z,13.90
2022-10-23T20:01:22.713Z,13.80
2022-10-23T20:03:49.801Z,13.80
2022-10-23T20:06:19.846Z,13.80
2022-10-23T20:08:46.928Z,13.80
2022-10-23T20:11:20.810Z,13.80
2022-10-23T20:13:49.148Z,13.70
2022-10-23T20:16:28.114Z,13.80
2022-10-23T20:18:55.348Z,13.70
2022-10-23T20:21:22.624Z,13.70
2022-10-23T20:23:50.848Z,13.50
2022-10-23T20:26:21.908Z,13.40
2022-10-23T20:28:52.092Z,13.40
2022-10-23T20:31:20.876Z,13.80
2022-10-23T20:33:47.708Z,14.40
2022-10-23T20:36:30.600Z,15.00
2022-10-23T20:38:58.841Z,15.40
2022-10-23T20:41:27.046Z,15.40
2022-10-23T20:43:59.733Z,15.50
2022-10-23T20:46:34.157Z,15.80
2022-10-23T20:49:00.912Z,15.80
2022-10-23T20:51:27.636Z,15.90
2022-10-23T20:53:54.626Z,16.00
2022-10-23T20:56:29.980Z,15.90
2022-10-23T20:59:18.750Z,15.80
2022-10-23T21:01:52.797Z,15.70
2022-10-23T21:04:27.713Z,15.60
2022-10-23T21:07:12.826Z,15.70
2022-10-23T21:09:40.303Z,15.80
2022-10-23T21:12:07.823Z,15.80
2022-10-23T21:14:35.216Z,15.90
2022-10-23T21:17:02.308Z,15.90
2022-10-23T21:19:28.987Z,16.00
2022-10-23T21:21:55.713Z,15.80
2022-10-23T21:24:22.573Z,15.90
2022-10-23T21:26:49.315Z,16.00
2022-10-23T21:29:20.086Z,16.00
2022-10-23T21:31:59.230Z,16.10
2022-10-23T21:34:26.908Z,16.00
2022-10-23T21:37:12.372Z,16.00
2022-10-23T21:39:41.205Z,16.10
2022-10-23T21:42:08.357Z,16.00
2022-10-23T21:44:35.303Z,15.90
2022-10-23T21:47:01.995Z,15.90
2022-10-23T21:49:28.728Z,15.90
2022-10-23T21:51:55.458Z,15.80
2022-10-23T21:54:22.267Z,15.70
2022-10-23T21:56:51.694Z,15.70
2022-10-23T21:59:21.179Z,15.80
2022-10-23T22:01:49.239Z,15.80
2022-10-23T22:04:17.614Z,15.70
2022-10-23T22:06:45.596Z,15.70
2022-10-23T22:09:15.193Z,15.60
2022-10-23T22:11:42.127Z,15.60
2022-10-23T22:14:08.924Z,15.60
2022-10-23T22:16:35.651Z,15.70
2022-10-23T22:19:03.466Z,15.70
2022-10-23T22:21:30.730Z,15.60
2022-10-23T22:23:59.827Z,15.60
2022-10-23T22:26:35.728Z,15.60
2022-10-23T22:29:09.919Z,15.60
2022-10-23T22:31:37.894Z,15.50
2022-10-23T22:34:18.621Z,15.40
2022-10-23T22:36:54.583Z,15.40
2022-10-23T22:39:22.488Z,15.30
2022-10-23T22:41:49.713Z,15.30
2022-10-23T22:44:16.495Z,15.20
2022-10-23T22:46:43.626Z,15.10
2022-10-23T22:49:10.574Z,15.10
2022-10-23T22:51:38.959Z,15.00
2022-10-23T22:54:06.009Z,14.90
2022-10-23T22:56:33.164Z,14.80
2022-10-23T22:58:59.845Z,14.70
2022-10-23T23:01:42.755Z,14.70
2022-10-23T23:04:25.858Z,14.70
2022-10-23T23:06:58.696Z,14.60
2022-10-23T23:09:25.369Z,14.60
2022-10-23T23:11:52.749Z,14.60
2022-10-23T23:14:23.393Z,14.60
2022-10-23T23:16:52.757Z,14.60
2022-10-23T23:19:19.886Z,14.60
2022-10-23T23:21:46.603Z,14.60
2022-10-23T23:24:13.339Z,14.50
2022-10-23T23:26:40.551Z,14.50
2022-10-23T23:29:07.387Z,14.50
2022-10-23T23:31:34.087Z,14.50
2022-10-23T23:34:01.013Z,14.50
2022-10-23T23:36:28.072Z,14.50
2022-10-23T23:38:57.050Z,14.50
2022-10-23T23:41:24.819Z,14.40
2022-10-23T23:43:54.487Z,14.30
2022-10-23T23:46:21.855Z,14.20
2022-10-23T23:48:49.566Z,14.20
2022-10-23T23:51:18.970Z,14.10
2022-10-23T23:53:46.282Z,14.00
2022-10-23T23:56:13.843Z,13.90
2022-10-23T23:58:40.560Z,13.90
